map of STY home
STY - Airport
Location
City:  Salto, Salto, Uruguay
Name:Nueva Hespérides International Airport
ICAO:SUSO
IATA:STY

Details
Type:Airport (Aerodrome, Airfield)
Use:Public/Civil, International (customs port of entry)
Latitude:31°26'19"S (-31.438480)
Longitude:57°59'07"W (-57.985293)
Datum:WGS 1984
Elevation:187 ft (57 m)
Variation:11.23°W (WMM2015 magnetic declination)
-0.18° annual change
Runways:2
Longest:5210 × 148 ft (1588 × 45 m), paved

Time
Time Zone:UTC-3
Local Time:

Weather
METAR:SUSO 171600Z 02006KT 9999 BKN023 29/20 Q1006
TAF:SUSO 170540Z 1706/1806 03008KT CAVOK TX30/1718Z TN15/1710Z PROB30
TEMPO 1706/1711 3000 BR NSC

Related Locations
Nearby:
Farthest:PVG: 12432 mi / 20007 km
Shanghai [Pudong Intl], 31, CN

Find:

   beyond  
but within

Other Information
Maps:
NOTAMs:
Links:
Sources:

  
  • flag of Uruguay
  • flag of Salto
  

Sectional Chart

Flight Planning
at skyvector.com

Satellite Image

Google Maps Satellite view

 

Copyright © 2004-2018 Karl L. Swartz. All rights reserved.
The Great Circle Mapper name and logo are trademarks of the Great Circle Mapper.
All other trademarks mentioned herein belong to their respective owners.
Please see credits for attibutions and further copyright information.

  Follow gcmap on Facebook Follow gcmap on Twitter Follow gcmap on Google+ GCmap on LinkedIn

hCard Microformat

Geo Microformat